Time;durP1;ratioP1;P1;durP2;ratioP2;P2;SDS_P1;SDS_P2;PMS_P1;PMS_P2;Temp;Humidity;BMP_temperature;BMP_pressure;BME280_temperature;BME280_humidity;BME280_pressure;Samples;Min_cycle;Max_cycle;Signal;HPM_P1;HPM_P2
2023/09/07 00:00:47;;;;;;;2.92;2.58;;;;;;;27.28;32.89;96607.53;5086560;28;20023;-28
2023/09/07 00:03:13;;;;;;;3.70;2.80;;;;;;;27.26;33.20;96606.56;5082660;28;20062;-28
2023/09/07 00:05:39;;;;;;;6.07;2.30;;;;;;;27.14;33.60;96597.66;5083326;28;20413;-28
2023/09/07 00:08:05;;;;;;;3.78;2.60;;;;;;;27.11;33.85;96605.03;5082259;28;20066;-28
2023/09/07 00:10:30;;;;;;;3.05;2.40;;;;;;;27.20;33.44;96601.09;5081729;28;20074;-27
2023/09/07 00:12:55;;;;;;;4.38;2.58;;;;;;;27.25;33.61;96597.47;5081989;28;20017;-28
2023/09/07 00:15:21;;;;;;;3.67;2.60;;;;;;;27.23;33.18;96604.84;5082591;28;20081;-28
2023/09/07 00:17:47;;;;;;;2.75;2.53;;;;;;;27.15;33.65;96599.91;5082477;28;20021;-28
2023/09/07 00:20:15;;;;;;;2.40;2.20;;;;;;;27.33;33.07;96603.88;5081995;28;20070;-29
2023/09/07 00:22:41;;;;;;;3.17;2.25;;;;;;;27.17;33.83;96596.59;5082238;28;20481;-28
2023/09/07 00:25:06;;;;;;;3.53;2.25;;;;;;;27.03;34.16;96592.31;5081714;28;20024;-28
2023/09/07 00:27:35;;;;;;;2.80;2.50;;;;;;;27.16;33.83;96586.75;5082056;28;20576;-28
2023/09/07 00:30:04;;;;;;;3.33;2.80;;;;;;;27.10;34.01;96592.41;5087217;28;20024;-29
2023/09/07 00:32:29;;;;;;;4.15;2.70;;;;;;;27.09;34.01;96595.72;5082051;28;20027;-28
2023/09/07 00:34:55;;;;;;;3.25;2.40;;;;;;;27.40;33.74;96600.47;5077976;28;20012;-28
2023/09/07 00:37:20;;;;;;;3.03;2.72;;;;;;;27.33;33.56;96595.53;5078136;28;20530;-28
2023/09/07 00:39:46;;;;;;;3.22;2.33;;;;;;;27.21;33.55;96591.44;5089546;28;20032;-28
2023/09/07 00:42:12;;;;;;;3.78;2.40;;;;;;;27.24;34.01;96586.84;5081148;28;20039;-28
2023/09/07 00:44:37;;;;;;;3.25;2.30;;;;;;;27.24;33.54;96595.97;5082149;28;20036;-28
2023/09/07 00:47:05;;;;;;;3.22;2.50;;;;;;;26.99;33.84;96589.81;5073870;28;20017;-28
2023/09/07 00:49:30;;;;;;;2.85;2.42;;;;;;;27.08;34.34;96586.63;5081413;28;20062;-28
2023/09/07 00:51:56;;;;;;;3.53;2.47;;;;;;;27.00;34.52;96582.22;5082795;28;20103;-27
2023/09/07 00:54:21;;;;;;;2.47;2.15;;;;;;;27.09;34.04;96590.16;5080506;28;20081;-28
2023/09/07 00:56:47;;;;;;;3.35;1.98;;;;;;;27.00;34.31;96585.00;5081303;28;20058;-28
2023/09/07 00:59:13;;;;;;;3.13;2.17;;;;;;;27.14;34.32;96580.97;5084027;28;20016;-28
2023/09/07 01:01:38;;;;;;;4.25;2.30;;;;;;;27.08;34.08;96583.09;5077144;28;20201;-28
2023/09/07 01:04:04;;;;;;;2.50;2.28;;;;;;;27.27;34.06;96578.19;5081773;28;20028;-28
2023/09/07 01:06:35;;;;;;;2.08;1.88;;;;;;;27.04;34.32;96580.63;5081184;28;20025;-30
2023/09/07 01:09:07;;;;;;;2.33;1.98;;;;;;;27.20;34.32;96580.88;5080894;28;20048;-28
2023/09/07 01:11:37;;;;;;;2.28;2.08;;;;;;;26.99;34.60;96575.91;5080720;28;20051;-28
2023/09/07 01:14:04;;;;;;;2.88;1.98;;;;;;;27.00;34.78;96582.22;5080711;28;20032;-29
2023/09/07 01:16:33;;;;;;;3.78;2.17;;;;;;;27.18;34.07;96581.41;5088688;28;20025;-28
2023/09/07 01:19:00;;;;;;;2.42;1.83;;;;;;;27.25;34.05;96577.97;5080846;28;20032;-29
2023/09/07 01:21:27;;;;;;;2.20;2.00;;;;;;;27.15;34.09;96582.47;5074733;28;20029;-29
2023/09/07 01:23:55;;;;;;;2.22;2.00;;;;;;;27.16;34.33;96583.97;5079293;28;20021;-28
2023/09/07 01:26:20;;;;;;;2.55;1.75;;;;;;;27.08;34.86;96583.09;5080456;28;20562;-28
2023/09/07 01:28:46;;;;;;;6.18;1.83;;;;;;;27.12;34.83;96586.31;5083819;28;20051;-30
2023/09/07 01:31:11;;;;;;;3.78;1.80;;;;;;;27.11;34.64;96584.81;5084028;28;20496;-28
2023/09/07 01:33:37;;;;;;;3.45;2.20;;;;;;;27.21;34.53;96591.44;5074401;28;20025;-28
2023/09/07 01:36:03;;;;;;;2.38;2.13;;;;;;;27.11;34.66;96582.03;5072416;28;20077;-28
2023/09/07 01:38:28;;;;;;;2.40;2.13;;;;;;;26.98;34.92;96584.78;5079078;28;20475;-28
2023/09/07 01:40:54;;;;;;;1.95;1.70;;;;;;;27.05;34.83;96584.16;5083252;28;20599;-28
2023/09/07 01:43:20;;;;;;;2.40;2.10;;;;;;;27.12;35.04;96583.53;5084112;28;20154;-28
2023/09/07 01:45:45;;;;;;;2.40;2.10;;;;;;;27.25;34.72;96586.31;5081669;28;20077;-28
2023/09/07 01:48:13;;;;;;;2.50;1.70;;;;;;;26.98;34.99;96579.22;5077290;28;20028;-28
2023/09/07 01:50:39;;;;;;;2.25;2.03;;;;;;;27.17;34.94;96588.25;5084174;28;20027;-28
2023/09/07 01:53:04;;;;;;;4.40;2.20;;;;;;;27.04;35.45;96583.41;5075866;28;20016;-28
2023/09/07 01:55:31;;;;;;;2.63;1.88;;;;;;;27.24;35.22;96579.25;5085149;28;20021;-28
2023/09/07 01:57:57;;;;;;;1.50;1.40;;;;;;;27.16;34.87;96579.16;5087716;28;20024;-28
2023/09/07 02:00:22;;;;;;;2.13;1.73;;;;;;;27.08;34.75;96580.31;5077149;28;20023;-28
2023/09/07 02:02:47;;;;;;;4.78;2.25;;;;;;;27.06;34.96;96571.75;5077129;28;20047;-28
2023/09/07 02:05:14;;;;;;;2.28;2.08;;;;;;;27.24;34.91;96576.47;5082138;28;20046;-27
2023/09/07 02:07:40;;;;;;;3.22;2.10;;;;;;;27.02;35.51;96571.31;5083839;28;20417;-28
2023/09/07 02:10:06;;;;;;;2.47;2.10;;;;;;;26.94;35.18;96576.03;5082470;28;20052;-29
2023/09/07 02:12:31;;;;;;;2.35;1.80;;;;;;;26.90;35.69;96583.91;5080211;28;20020;-29
2023/09/07 02:15:00;;;;;;;2.45;1.70;;;;;;;26.95;34.99;96581.06;5079789;28;20408;-28
2023/09/07 02:17:25;;;;;;;4.45;2.15;;;;;;;27.04;35.00;96577.84;5080122;28;20052;-28
2023/09/07 02:19:51;;;;;;;2.55;1.77;;;;;;;27.06;35.42;96574.53;5078721;28;20062;-29
2023/09/07 02:22:16;;;;;;;2.90;1.83;;;;;;;27.02;35.27;96569.28;5082180;28;20147;-29
2023/09/07 02:24:41;;;;;;;2.47;2.00;;;;;;;26.86;35.86;96577.88;5083670;28;20016;-28
2023/09/07 02:27:07;;;;;;;3.90;1.85;;;;;;;26.99;35.16;96581.47;5084393;28;20394;-28
2023/09/07 02:29:32;;;;;;;4.00;2.40;;;;;;;26.95;35.47;96575.50;5087288;28;20028;-28
2023/09/07 02:31:58;;;;;;;2.17;1.92;;;;;;;27.02;35.51;96574.84;5072882;28;20024;-28
2023/09/07 02:34:24;;;;;;;2.50;2.13;;;;;;;26.92;35.31;96581.34;5087326;28;20334;-28
2023/09/07 02:36:49;;;;;;;3.00;2.40;;;;;;;26.92;35.46;96575.78;5073262;28;20040;-28
2023/09/07 02:39:14;;;;;;;3.20;1.90;;;;;;;26.89;35.75;96576.81;5085648;28;20035;-28
2023/09/07 02:41:40;;;;;;;3.08;1.98;;;;;;;27.05;35.37;96568.22;5080713;28;20040;-28
2023/09/07 02:44:05;;;;;;;5.03;2.22;;;;;;;27.10;35.14;96570.13;5083907;28;20020;-28
2023/09/07 02:46:31;;;;;;;2.28;2.08;;;;;;;26.99;35.56;96570.34;5083683;28;20024;-28
2023/09/07 02:48:57;;;;;;;4.20;1.92;;;;;;;27.14;35.45;96569.84;5075396;28;20020;-29
2023/09/07 02:51:26;;;;;;;3.45;2.35;;;;;;;27.04;35.17;96569.50;5086226;28;20039;-27
2023/09/07 02:53:52;;;;;;;3.63;2.40;;;;;;;26.87;35.56;96569.00;5085863;28;20366;-29
2023/09/07 02:56:17;;;;;;;2.67;2.10;;;;;;;27.01;35.72;96569.81;5082115;28;20020;-30
2023/09/07 02:58:43;;;;;;;4.63;2.00;;;;;;;26.96;35.72;96565.84;5084112;28;20023;-29
2023/09/07 03:01:08;;;;;;;5.47;2.50;;;;;;;27.09;35.08;96577.00;5084137;28;20028;-29
2023/09/07 03:03:35;;;;;;;2.50;2.28;;;;;;;26.98;35.49;96568.84;5083526;28;20020;-28
2023/09/07 03:06:08;;;;;;;2.60;2.17;;;;;;;26.94;35.30;96570.47;5083930;28;20020;-29
2023/09/07 03:08:34;;;;;;;2.17;1.98;;;;;;;26.97;35.65;96574.94;5082802;28;20029;-29
2023/09/07 03:11:04;;;;;;;2.33;2.10;;;;;;;26.92;35.53;96570.97;5083630;28;20448;-28
2023/09/07 03:13:29;;;;;;;2.17;1.98;;;;;;;26.92;35.71;96564.63;5086805;28;20070;-29
2023/09/07 03:15:55;;;;;;;3.33;2.20;;;;;;;27.07;35.58;96570.47;5080769;28;20029;-28
2023/09/07 03:18:21;;;;;;;2.80;2.10;;;;;;;26.93;35.93;96564.13;5084414;28;20024;-28
2023/09/07 03:20:47;;;;;;;4.10;1.92;;;;;;;27.04;35.24;96571.53;5082216;28;20111;-28
2023/09/07 03:23:12;;;;;;;3.03;2.15;;;;;;;26.93;35.31;96578.06;5083284;28;20020;-28
2023/09/07 03:25:38;;;;;;;3.90;2.10;;;;;;;26.80;35.99;96575.22;5075914;28;20545;-28
2023/09/07 03:28:04;;;;;;;2.97;2.20;;;;;;;27.03;35.18;96564.47;5074721;28;20029;-28
2023/09/07 03:30:29;;;;;;;2.08;1.88;;;;;;;26.83;35.74;96565.78;5082691;28;20028;-28
2023/09/07 03:32:55;;;;;;;3.15;2.10;;;;;;;26.93;35.51;96563.38;5082892;28;20018;-28
2023/09/07 03:35:20;;;;;;;2.95;2.00;;;;;;;26.91;35.44;96563.88;5082379;28;20469;-29
2023/09/07 03:37:46;;;;;;;2.47;2.00;;;;;;;26.88;35.56;96564.94;5082712;28;20428;-29
2023/09/07 03:40:11;;;;;;;3.28;1.95;;;;;;;26.91;35.54;96568.69;5080435;28;20426;-28
2023/09/07 03:42:37;;;;;;;2.25;1.83;;;;;;;26.83;35.55;96569.31;5077736;28;20044;-28
2023/09/07 03:45:03;;;;;;;2.10;1.90;;;;;;;26.73;36.07;96564.69;5086342;28;20047;-28
2023/09/07 03:47:29;;;;;;;3.83;2.20;;;;;;;26.90;35.81;96561.63;5079431;28;20031;-28
2023/09/07 03:49:56;;;;;;;2.80;2.20;;;;;;;26.76;35.91;96561.59;5090358;28;20024;-29
2023/09/07 03:52:24;;;;;;;3.58;2.08;;;;;;;26.87;36.10;96562.69;5080144;28;20022;-28
2023/09/07 03:54:51;;;;;;;4.32;2.10;;;;;;;26.94;35.69;96564.88;5077464;28;20024;-29
2023/09/07 03:57:17;;;;;;;4.13;2.38;;;;;;;26.93;35.66;96557.81;5082896;28;20024;-29
2023/09/07 03:59:43;;;;;;;2.25;2.00;;;;;;;26.87;36.32;96551.56;5089444;28;20082;-28
2023/09/07 04:02:08;;;;;;;3.25;2.17;;;;;;;26.95;35.79;96552.47;5081598;28;20032;-28
2023/09/07 04:04:34;;;;;;;2.05;1.80;;;;;;;26.93;35.67;96563.38;5082628;28;20019;-28
2023/09/07 04:06:59;;;;;;;2.08;1.88;;;;;;;26.96;36.13;96554.69;5081895;28;20021;-28
2023/09/07 04:09:24;;;;;;;3.13;2.28;;;;;;;26.85;35.91;96560.44;5082463;28;20472;-28
2023/09/07 04:11:50;;;;;;;2.60;2.13;;;;;;;26.91;36.22;96552.75;5081376;28;20019;-29
2023/09/07 04:14:15;;;;;;;2.50;2.03;;;;;;;26.88;36.14;96561.41;5077078;28;20579;-29
2023/09/07 04:16:42;;;;;;;2.95;2.28;;;;;;;26.96;36.16;96554.69;5088597;28;20382;-28
2023/09/07 04:19:08;;;;;;;4.40;2.05;;;;;;;26.96;36.17;96553.94;5082102;28;20107;-29
2023/09/07 04:21:35;;;;;;;3.70;2.50;;;;;;;26.95;36.08;96547.66;5077712;28;20032;-29
2023/09/07 04:24:01;;;;;;;2.65;2.22;;;;;;;26.73;36.22;96553.56;5085708;28;20031;-28
2023/09/07 04:26:27;;;;;;;2.50;2.08;;;;;;;26.73;36.39;96556.34;5083202;28;20039;-28
2023/09/07 04:28:53;;;;;;;2.28;2.08;;;;;;;27.02;35.85;96563.72;5085817;28;20024;-28
2023/09/07 04:31:18;;;;;;;5.80;2.78;;;;;;;26.91;36.01;96554.78;5077614;28;20391;-28
2023/09/07 04:33:44;;;;;;;2.65;2.42;;;;;;;26.91;36.63;96554.78;5082003;28;20017;-29
2023/09/07 04:36:14;;;;;;;3.47;2.58;;;;;;;26.79;36.72;96554.97;5082288;28;20462;-28
2023/09/07 04:38:40;;;;;;;7.28;2.58;;;;;;;26.94;36.49;96557.28;5082555;28;20032;-28
2023/09/07 04:41:15;;;;;;;2.60;2.10;;;;;;;26.75;36.78;96562.88;5081041;28;20060;-28
2023/09/07 04:43:45;;;;;;;2.88;2.38;;;;;;;26.94;36.09;96570.47;5081659;28;20086;-28
2023/09/07 04:46:14;;;;;;;3.75;2.50;;;;;;;26.83;36.89;96560.97;5081769;28;20028;-28
2023/09/07 04:48:41;;;;;;;2.60;2.40;;;;;;;26.75;36.85;96562.13;5081394;28;20027;-29
2023/09/07 04:51:07;;;;;;;5.03;2.50;;;;;;;26.67;36.72;96564.81;5084468;28;20024;-28
2023/09/07 04:53:35;;;;;;;2.60;2.38;;;;;;;26.71;36.94;96564.47;5086146;28;20020;-28
2023/09/07 04:56:02;;;;;;;2.60;2.40;;;;;;;26.87;36.83;96571.78;5081917;28;20028;-28
2023/09/07 04:58:27;;;;;;;3.58;2.35;;;;;;;26.73;36.55;96581.38;5078508;28;20023;-29
2023/09/07 05:00:53;;;;;;;4.25;2.38;;;;;;;26.76;36.70;96572.72;5083688;28;20020;-28
2023/09/07 05:03:19;;;;;;;3.03;2.53;;;;;;;26.77;36.88;96582.59;5081445;28;20486;-29
2023/09/07 05:05:44;;;;;;;3.90;2.80;;;;;;;26.81;37.08;96580.25;5081623;28;20027;-29
2023/09/07 05:08:10;;;;;;;3.85;2.60;;;;;;;26.70;36.95;96577.66;5081364;28;20024;-28
2023/09/07 05:10:37;;;;;;;3.60;2.85;;;;;;;26.94;36.67;96573.25;5074634;28;20099;-28
2023/09/07 05:13:03;;;;;;;3.20;2.40;;;;;;;26.75;37.12;96579.56;5080841;28;20492;-28
2023/09/07 05:15:29;;;;;;;2.97;2.38;;;;;;;26.81;36.68;96588.59;5083429;28;20024;-28
2023/09/07 05:17:55;;;;;;;3.50;2.45;;;;;;;26.95;36.86;96585.88;5076864;28;20446;-30
2023/09/07 05:20:21;;;;;;;5.20;2.60;;;;;;;26.78;36.94;96591.69;5081505;28;20028;-28
2023/09/07 05:22:47;;;;;;;3.33;2.70;;;;;;;26.94;36.90;96589.94;5080177;28;20120;-30
2023/09/07 05:25:13;;;;;;;3.30;3.00;;;;;;;26.89;37.08;96582.41;5081163;28;20499;-29
2023/09/07 05:27:38;;;;;;;3.60;3.00;;;;;;;26.88;37.07;96576.06;5082854;28;20024;-28
2023/09/07 05:30:04;;;;;;;2.95;2.53;;;;;;;26.80;37.27;96583.56;5086000;28;20098;-28
2023/09/07 05:32:30;;;;;;;3.10;2.42;;;;;;;26.72;37.03;96588.97;5081056;28;20108;-28
2023/09/07 05:34:55;;;;;;;2.60;2.30;;;;;;;26.72;37.68;96586.19;5076633;28;20104;-27
2023/09/07 05:37:21;;;;;;;3.33;2.40;;;;;;;26.68;37.31;96585.78;5084269;28;20027;-28
2023/09/07 05:39:46;;;;;;;4.10;3.00;;;;;;;26.60;37.88;96587.66;5075269;28;20096;-30
2023/09/07 05:42:12;;;;;;;2.60;2.35;;;;;;;26.63;37.95;96591.41;5078285;28;20135;-28
2023/09/07 05:44:38;;;;;;;4.80;2.50;;;;;;;26.78;37.68;96589.66;5088120;28;20385;-27
2023/09/07 05:47:04;;;;;;;2.63;2.42;;;;;;;26.69;37.85;96592.84;5072665;28;20031;-29
2023/09/07 05:49:30;;;;;;;3.33;2.60;;;;;;;26.64;37.77;96596.44;5072579;28;20430;-28
2023/09/07 05:51:56;;;;;;;3.65;2.50;;;;;;;26.73;37.62;96598.81;5079034;28;20112;-28
2023/09/07 05:54:21;;;;;;;4.82;2.83;;;;;;;26.73;37.99;96596.03;5083755;28;20357;-28
2023/09/07 05:56:47;;;;;;;4.00;2.75;;;;;;;26.99;37.96;96603.00;5075590;28;20020;-28
2023/09/07 05:59:12;;;;;;;5.28;2.45;;;;;;;26.95;38.04;96608.13;5080521;28;20020;-28
2023/09/07 06:01:39;;;;;;;4.28;2.78;;;;;;;26.80;38.34;96603.03;5080574;28;20474;-28
2023/09/07 06:04:05;;;;;;;3.15;2.63;;;;;;;26.83;38.40;96599.91;5081021;28;20366;-28
2023/09/07 06:06:31;;;;;;;2.97;2.67;;;;;;;26.80;38.15;96608.59;5081063;28;20081;-29
2023/09/07 06:08:58;;;;;;;3.60;2.60;;;;;;;26.78;38.62;96606.34;5080241;28;20472;-29
2023/09/07 06:11:24;;;;;;;9.38;3.00;;;;;;;26.91;38.29;96613.22;5075874;28;20477;-28
2023/09/07 06:13:50;;;;;;;5.07;2.50;;;;;;;26.89;38.56;96604.66;5083494;28;20032;-29
2023/09/07 06:16:15;;;;;;;4.22;2.67;;;;;;;26.72;38.64;96616.81;5075280;28;20024;-28
2023/09/07 06:18:40;;;;;;;4.97;2.22;;;;;;;26.74;39.19;96610.72;5079981;28;20027;-28
2023/09/07 06:21:06;;;;;;;2.35;2.15;;;;;;;26.84;38.60;96615.34;5087362;28;20035;-28
2023/09/07 06:23:31;;;;;;;4.97;2.78;;;;;;;26.80;38.88;96614.91;5080331;28;20027;-28
2023/09/07 06:25:57;;;;;;;3.38;2.67;;;;;;;26.70;39.66;96619.38;5087796;28;20030;-28
2023/09/07 06:28:23;;;;;;;2.63;2.42;;;;;;;26.72;39.24;96627.94;5086364;28;20026;-28
2023/09/07 06:30:48;;;;;;;2.60;2.40;;;;;;;26.89;39.13;96626.91;5087470;28;20416;-28
2023/09/07 06:33:13;;;;;;;4.28;2.78;;;;;;;26.89;39.03;96621.34;5087822;28;20028;-29
2023/09/07 06:35:39;;;;;;;4.20;2.40;;;;;;;26.89;39.58;96619.31;5085065;28;20473;-30
2023/09/07 06:38:05;;;;;;;3.17;2.67;;;;;;;26.76;39.82;96625.59;5084006;28;20034;-28
2023/09/07 06:40:30;;;;;;;3.75;2.40;;;;;;;26.95;39.73;96625.59;5083165;28;20116;-28
2023/09/07 06:42:56;;;;;;;3.75;2.30;;;;;;;26.90;39.67;96625.63;5086884;28;20024;-28
2023/09/07 06:45:23;;;;;;;4.65;2.47;;;;;;;26.93;39.49;96617.00;5089066;28;20013;-28
2023/09/07 06:47:52;;;;;;;4.18;2.58;;;;;;;26.83;39.94;96619.41;5076852;28;20056;-28
2023/09/07 06:50:18;;;;;;;2.67;2.40;;;;;;;26.78;39.77;96630.63;5081228;28;20020;-29
2023/09/07 06:52:43;;;;;;;3.88;2.70;;;;;;;26.92;39.54;96634.22;5086702;28;20480;-28
2023/09/07 06:55:09;;;;;;;4.50;2.75;;;;;;;26.76;40.11;96631.16;5076437;28;20033;-28
2023/09/07 06:57:34;;;;;;;3.85;2.65;;;;;;;26.88;40.05;96634.50;5089753;28;20020;-28
2023/09/07 07:00:00;;;;;;;2.97;2.70;;;;;;;26.98;39.64;96629.31;5085529;28;20055;-28
2023/09/07 07:02:26;;;;;;;2.60;2.40;;;;;;;26.89;39.86;96626.91;5080629;28;20016;-29
2023/09/07 07:04:52;;;;;;;5.95;2.70;;;;;;;26.87;40.21;96630.22;5087207;28;20035;-28
2023/09/07 07:07:17;;;;;;;4.63;3.05;;;;;;;26.91;40.18;96638.28;5083306;28;20028;-28
2023/09/07 07:09:43;;;;;;;3.13;2.83;;;;;;;26.77;40.58;96635.44;5081990;28;20048;-29
2023/09/07 07:12:09;;;;;;;3.83;2.70;;;;;;;26.78;40.66;96639.72;5084315;28;20115;-27
2023/09/07 07:14:34;;;;;;;3.15;2.78;;;;;;;26.91;40.56;96621.56;5083413;28;20017;-27
2023/09/07 07:17:01;;;;;;;3.03;2.63;;;;;;;27.06;40.18;96641.34;5082393;28;20028;-28
2023/09/07 07:19:28;;;;;;;4.32;2.97;;;;;;;27.11;39.87;96635.66;5083340;28;20024;-28
2023/09/07 07:21:53;;;;;;;4.35;2.80;;;;;;;26.84;40.68;96631.28;5075908;28;20023;-28
2023/09/07 07:24:19;;;;;;;4.13;3.08;;;;;;;27.16;39.79;96634.09;5083297;28;20029;-28
2023/09/07 07:26:45;;;;;;;4.00;3.00;;;;;;;27.08;40.09;96633.19;5079239;28;20044;-28
2023/09/07 07:29:11;;;;;;;3.17;2.78;;;;;;;27.16;40.14;96645.22;5080125;28;20378;-28
2023/09/07 07:31:37;;;;;;;3.00;2.70;;;;;;;27.10;39.91;96636.19;5075585;28;20024;-27
2023/09/07 07:34:02;;;;;;;3.63;2.97;;;;;;;27.24;39.88;96636.97;5081349;28;20028;-28
2023/09/07 07:36:28;;;;;;;4.93;3.13;;;;;;;27.21;40.07;96644.34;5075401;28;20024;-27
2023/09/07 07:38:54;;;;;;;3.30;3.05;;;;;;;27.20;40.27;96651.22;5083513;28;20107;-28
2023/09/07 07:41:20;;;;;;;4.30;3.42;;;;;;;27.19;40.58;96644.16;5082970;28;20486;-28
2023/09/07 07:43:45;;;;;;;5.90;3.28;;;;;;;27.23;40.39;96644.56;5082706;28;20027;-27
2023/09/07 07:46:11;;;;;;;5.32;3.85;;;;;;;27.29;40.13;96641.72;5082556;28;20097;-27
2023/09/07 07:48:36;;;;;;;4.05;3.25;;;;;;;27.26;40.37;96642.78;5075385;28;20082;-28
2023/09/07 07:51:05;;;;;;;5.13;3.13;;;;;;;27.33;40.23;96651.22;5085152;28;20540;-28
2023/09/07 07:53:31;;;;;;;5.30;3.17;;;;;;;27.31;40.03;96651.03;5087302;28;20039;-28
2023/09/07 07:55:57;;;;;;;5.38;3.35;;;;;;;27.18;40.44;96648.22;5082469;28;20461;-29
2023/09/07 07:58:22;;;;;;;3.42;3.13;;;;;;;27.40;40.43;96653.41;5079594;28;20073;-27
2023/09/07 08:00:48;;;;;;;3.22;2.92;;;;;;;27.46;39.87;96642.88;5085696;28;20016;-28
2023/09/07 08:03:15;;;;;;;4.53;3.08;;;;;;;27.50;39.54;96642.56;5082176;28;20466;-27
2023/09/07 08:05:40;;;;;;;3.90;3.17;;;;;;;27.53;39.93;96647.09;5075299;28;20073;-28
2023/09/07 08:08:06;;;;;;;3.65;3.08;;;;;;;27.61;39.60;96650.00;5083131;28;20466;-27
2023/09/07 08:10:36;;;;;;;3.40;3.05;;;;;;;27.54;40.07;96640.97;5082101;28;20047;-28
2023/09/07 08:13:03;;;;;;;3.90;3.45;;;;;;;27.62;39.50;96648.72;5082369;28;20051;-28
2023/09/07 08:15:28;;;;;;;3.80;3.17;;;;;;;27.75;39.52;96648.72;5083599;28;20111;-28
2023/09/07 08:17:55;;;;;;;3.67;2.80;;;;;;;27.63;39.56;96653.75;5079763;28;20099;-27
2023/09/07 08:20:20;;;;;;;6.97;3.25;;;;;;;27.74;39.27;96653.53;5082721;28;20027;-28
2023/09/07 08:22:46;;;;;;;3.20;2.90;;;;;;;27.70;39.60;96644.75;5081847;28;20028;-29
2023/09/07 08:25:16;;;;;;;4.75;3.15;;;;;;;27.45;40.69;96644.16;5082519;28;20020;-28
2023/09/07 08:27:44;;;;;;;4.53;3.50;;;;;;;27.78;39.58;96631.69;5084661;28;20044;-28
2023/09/07 08:30:11;;;;;;;3.90;3.05;;;;;;;27.81;39.28;96641.00;5085416;28;20589;-28
2023/09/07 08:32:38;;;;;;;5.97;3.30;;;;;;;27.74;39.43;96636.81;5082220;28;20361;-28
2023/09/07 08:35:06;;;;;;;4.57;3.38;;;;;;;27.75;39.82;96637.56;5079021;28;20023;-28
2023/09/07 08:37:33;;;;;;;3.42;3.13;;;;;;;27.86;39.76;96638.09;5084174;28;20021;-27
2023/09/07 08:39:59;;;;;;;4.40;3.58;;;;;;;27.83;39.45;96632.84;5088490;28;20048;-28
2023/09/07 08:42:25;;;;;;;3.42;3.00;;;;;;;27.76;40.18;96639.06;5080944;28;20079;-28
2023/09/07 08:44:51;;;;;;;4.32;3.53;;;;;;;27.84;39.83;96628.78;5081862;28;20440;-28
2023/09/07 08:47:18;;;;;;;4.57;3.35;;;;;;;27.95;39.24;96625.75;5081670;28;20012;-28
2023/09/07 08:49:47;;;;;;;6.00;3.38;;;;;;;27.82;39.82;96622.97;5088893;28;20480;-28
2023/09/07 08:52:14;;;;;;;4.40;3.28;;;;;;;28.03;39.30;96629.41;5074015;28;20020;-28
2023/09/07 08:54:41;;;;;;;4.63;3.30;;;;;;;28.02;39.23;96622.31;5074709;28;20024;-28
2023/09/07 08:57:07;;;;;;;5.25;3.10;;;;;;;27.94;39.18;96629.84;5081698;28;20467;-28
2023/09/07 08:59:32;;;;;;;5.18;3.30;;;;;;;27.95;39.25;96622.97;5086892;28;20020;-27
2023/09/07 09:02:01;;;;;;;4.60;3.10;;;;;;;27.77;40.01;96623.84;5083308;28;20077;-28
2023/09/07 09:04:28;;;;;;;5.13;3.30;;;;;;;27.79;39.69;96616.47;5084890;28;20023;-28
2023/09/07 09:06:53;;;;;;;6.72;3.20;;;;;;;27.96;39.34;96618.13;5077133;28;20067;-28
2023/09/07 09:09:25;;;;;;;3.88;3.35;;;;;;;27.96;39.11;96615.34;5080978;28;20056;-27
2023/09/07 09:11:51;;;;;;;4.10;3.67;;;;;;;28.08;38.93;96622.19;5080050;28;20024;-28
2023/09/07 09:14:18;;;;;;;4.53;3.22;;;;;;;27.95;39.01;96616.63;5075842;28;20545;-30
2023/09/07 09:16:52;;;;;;;4.28;3.50;;;;;;;27.95;38.60;96617.38;5078776;28;20016;-28
2023/09/07 09:19:18;;;;;;;5.35;3.30;;;;;;;28.07;38.62;96617.91;5081241;28;20047;-28
2023/09/07 09:21:45;;;;;;;5.32;3.45;;;;;;;28.05;38.66;96610.09;5077471;28;20020;-28
2023/09/07 09:24:11;;;;;;;5.30;4.00;;;;;;;28.10;38.60;96622.41;5076995;28;20039;-27
2023/09/07 09:26:39;;;;;;;7.55;3.33;;;;;;;28.06;38.94;96622.00;5080354;28;20016;-28
2023/09/07 09:29:05;;;;;;;5.10;3.63;;;;;;;28.18;38.92;96624.03;5081245;28;20020;-28
2023/09/07 09:31:30;;;;;;;4.70;3.50;;;;;;;28.18;38.99;96620.50;5073352;28;20086;-27
2023/09/07 09:33:56;;;;;;;7.28;3.83;;;;;;;28.06;38.96;96616.44;5080562;28;20013;-28
2023/09/07 09:36:22;;;;;;;5.25;3.20;;;;;;;28.19;38.90;96617.16;5088128;28;20024;-28
2023/09/07 09:38:53;;;;;;;5.43;3.60;;;;;;;28.12;38.85;96617.03;5082697;28;20078;-28
2023/09/07 09:41:20;;;;;;;5.55;3.47;;;;;;;28.04;38.98;96616.97;5077805;28;20068;-27
2023/09/07 09:43:51;;;;;;;5.38;3.35;;;;;;;28.14;38.50;96618.00;5081911;28;20374;-28
2023/09/07 09:46:17;;;;;;;4.20;3.35;;;;;;;28.24;38.33;96615.53;5078080;28;20017;-28
2023/09/07 09:48:43;;;;;;;4.95;3.50;;;;;;;28.14;38.79;96623.59;5080648;28;20024;-28
2023/09/07 09:51:11;;;;;;;5.63;4.30;;;;;;;28.11;38.33;96612.75;5080277;28;20028;-28
2023/09/07 09:53:36;;;;;;;4.65;3.80;;;;;;;28.12;38.33;96617.78;5079733;28;20024;-28
2023/09/07 09:56:02;;;;;;;5.53;3.30;;;;;;;28.24;37.86;96616.28;5080429;28;20035;-28
2023/09/07 09:58:29;;;;;;;3.92;3.20;;;;;;;28.10;38.02;96608.47;5078059;28;20016;-28
2023/09/07 10:00:57;;;;;;;4.07;3.22;;;;;;;28.24;37.88;96612.75;5081891;28;20024;-27
2023/09/07 10:03:32;;;;;;;3.88;3.42;;;;;;;28.26;37.56;96601.06;5076742;28;20024;-28
2023/09/07 10:06:20;;;;;;;4.18;3.78;;;;;;;28.29;37.32;96605.56;5083046;28;20021;-27
2023/09/07 10:08:59;;;;;;;5.13;3.60;;;;;;;28.26;36.85;96612.22;5080084;28;20095;-27
2023/09/07 10:11:38;;;;;;;4.03;3.10;;;;;;;28.38;36.84;96607.88;5087725;28;20043;-28
2023/09/07 10:14:05;;;;;;;5.82;3.58;;;;;;;28.27;37.46;96610.94;5080712;28;20016;-28
2023/09/07 10:16:48;;;;;;;4.70;3.35;;;;;;;28.23;36.83;96602.88;5082119;28;20466;-28
2023/09/07 10:19:18;;;;;;;3.60;3.30;;;;;;;28.30;36.93;96607.06;5082546;28;20028;-28
2023/09/07 10:21:43;;;;;;;4.18;3.38;;;;;;;28.33;36.84;96600.38;5076551;28;20019;-28
2023/09/07 10:24:09;;;;;;;4.05;3.65;;;;;;;28.38;36.78;96596.72;5076146;28;20029;-28
2023/09/07 10:26:34;;;;;;;4.00;3.20;;;;;;;28.39;36.88;96592.66;5087293;28;20495;-27
2023/09/07 10:29:03;;;;;;;4.45;3.60;;;;;;;28.38;37.00;96591.91;5085285;28;20468;-28
2023/09/07 10:31:30;;;;;;;4.20;3.22;;;;;;;28.38;36.79;96597.47;5082072;28;20387;-28
2023/09/07 10:33:56;;;;;;;4.50;3.30;;;;;;;28.37;37.12;96589.66;5083885;28;20046;-27
2023/09/07 10:36:23;;;;;;;5.53;3.50;;;;;;;28.36;37.10;96588.16;5083554;28;20103;-27
2023/09/07 10:38:48;;;;;;;6.13;3.38;;;;;;;28.43;36.58;96593.06;5082507;28;20028;-28
2023/09/07 10:41:14;;;;;;;4.40;3.80;;;;;;;28.40;36.59;96594.91;5083351;28;20047;-28
2023/09/07 10:43:57;;;;;;;4.78;3.22;;;;;;;28.49;36.59;96597.22;5082592;28;20423;-28
2023/09/07 10:46:23;;;;;;;;;;;;;;;28.47;36.62;96587.88;5077598;28;20035;-27
2023/09/07 10:48:53;;;;;;;3.92;3.33;;;;;;;28.52;36.08;96584.97;5079977;28;19908;-28
2023/09/07 10:51:21;;;;;;;5.18;3.00;;;;;;;28.51;36.32;96577.16;5080167;28;20017;-28
2023/09/07 10:53:47;;;;;;;3.25;2.80;;;;;;;28.48;36.46;96583.81;5079937;28;20024;-28
2023/09/07 10:56:13;;;;;;;5.15;3.70;;;;;;;28.45;36.18;96577.28;5071757;28;20026;-28
2023/09/07 10:58:41;;;;;;;3.58;3.00;;;;;;;28.56;36.11;96571.41;5080322;28;20023;-28
2023/09/07 11:01:08;;;;;;;5.75;3.72;;;;;;;28.48;36.38;96578.22;5080915;28;20036;-27
2023/09/07 11:03:36;;;;;;;6.15;3.85;;;;;;;28.47;36.35;96571.91;5085356;28;20020;-28
2023/09/07 11:06:03;;;;;;;3.72;3.40;;;;;;;28.54;36.52;96576.81;5072488;28;20070;-28
2023/09/07 11:08:29;;;;;;;3.70;3.40;;;;;;;28.51;35.96;96575.13;5079458;28;20031;-27
2023/09/07 11:10:55;;;;;;;6.72;3.47;;;;;;;28.64;35.69;96573.56;5087141;28;20024;-27
2023/09/07 11:13:23;;;;;;;3.45;3.15;;;;;;;28.51;35.39;96569.53;5084015;28;20028;-28
2023/09/07 11:15:49;;;;;;;3.90;3.47;;;;;;;28.61;35.14;96561.44;5089089;28;20028;-28
2023/09/07 11:18:20;;;;;;;3.72;3.42;;;;;;;28.54;34.96;96562.13;5085044;28;20027;-28
2023/09/07 11:20:45;;;;;;;4.72;4.18;;;;;;;28.55;35.41;96558.78;5087993;28;20016;-28
2023/09/07 11:23:11;;;;;;;4.13;3.72;;;;;;;28.64;35.62;96554.78;5086096;28;20529;-28
2023/09/07 11:25:38;;;;;;;4.38;3.78;;;;;;;28.60;35.10;96563.47;5074719;28;20028;-27
2023/09/07 11:28:05;;;;;;;3.70;3.30;;;;;;;28.63;34.84;96560.88;5083287;28;20040;-28
2023/09/07 11:30:34;;;;;;;4.00;3.60;;;;;;;28.75;34.73;96551.69;5083503;28;20510;-29